createdAt,value
2019-01-04T00:01:39.022Z,10.90
2019-01-04T00:04:11.931Z,11.20
2019-01-04T00:06:42.912Z,9.23
2019-01-04T00:09:13.909Z,14.67
2019-01-04T00:11:45.107Z,9.73
2019-01-04T00:14:16.064Z,8.87
2019-01-04T00:16:47.065Z,7.10
2019-01-04T00:19:18.322Z,9.77
2019-01-04T00:21:49.299Z,10.57
2019-01-04T00:24:20.058Z,9.90
2019-01-04T00:26:50.943Z,8.13
2019-01-04T00:29:21.827Z,9.50
2019-01-04T00:31:52.878Z,11.00
2019-01-04T00:34:23.811Z,9.33
2019-01-04T00:36:54.794Z,10.57
2019-01-04T00:39:25.889Z,10.57
2019-01-04T00:41:56.766Z,12.67
2019-01-04T00:44:27.870Z,7.93
2019-01-04T00:46:58.866Z,11.93
2019-01-04T00:49:29.852Z,9.53
2019-01-04T00:52:00.957Z,10.80
2019-01-04T00:54:32.342Z,10.70
2019-01-04T00:57:28.221Z,11.00
2019-01-04T01:00:53.686Z,7.87
2019-01-04T01:04:14.303Z,13.00
2019-01-04T01:07:15.565Z,8.27
2019-01-04T01:10:42.449Z,18.03
2019-01-04T01:13:48.653Z,10.67
2019-01-04T01:17:14.797Z,10.83
2019-01-04T01:20:21.770Z,15.50
2019-01-04T01:23:36.842Z,11.33
2019-01-04T01:26:32.371Z,13.37
2019-01-04T01:29:33.510Z,14.47
2019-01-04T01:32:39.656Z,9.40
2019-01-04T01:35:57.301Z,11.27
2019-01-04T01:39:17.290Z,8.33
2019-01-04T01:42:23.874Z,9.20
2019-01-04T01:45:36.889Z,9.37
2019-01-04T01:48:16.694Z,13.00
2019-01-04T01:51:26.897Z,13.00
2019-01-04T01:53:57.898Z,11.43
2019-01-04T01:56:28.879Z,9.27
2019-01-04T01:59:00.006Z,14.50
2019-01-04T02:01:30.950Z,13.00
2019-01-04T02:04:01.946Z,14.50
2019-01-04T02:06:33.030Z,12.60
2019-01-04T02:09:07.456Z,17.33
2019-01-04T02:11:37.889Z,11.13
2019-01-04T02:14:08.770Z,9.43
2019-01-04T02:16:39.654Z,15.13
2019-01-04T02:19:10.537Z,16.63
2019-01-04T02:21:41.746Z,12.47
2019-01-04T02:24:12.734Z,10.60
2019-01-04T02:26:43.714Z,9.57
2019-01-04T02:29:14.686Z,10.67
2019-01-04T02:31:45.702Z,12.90
2019-01-04T02:34:16.710Z,13.37
2019-01-04T02:36:47.682Z,13.77
2019-01-04T02:39:18.673Z,12.37
2019-01-04T02:41:49.677Z,14.17
2019-01-04T02:44:20.552Z,21.40
2019-01-04T02:46:51.645Z,14.83
2019-01-04T02:49:22.736Z,12.40
2019-01-04T02:51:53.719Z,14.93
2019-01-04T02:54:24.617Z,19.87
2019-01-04T02:56:55.506Z,13.80
2019-01-04T02:59:26.674Z,15.20
2019-01-04T03:01:57.681Z,12.23
2019-01-04T03:04:28.929Z,12.30
2019-01-04T03:07:00.075Z,13.77
2019-01-04T03:09:31.161Z,12.90
2019-01-04T03:12:02.145Z,16.07
2019-01-04T03:14:33.121Z,11.67
2019-01-04T03:17:04.140Z,13.30
2019-01-04T03:19:35.225Z,12.83
2019-01-04T03:22:06.105Z,13.67
2019-01-04T03:24:38.257Z,14.63
2019-01-04T03:27:09.218Z,15.87
2019-01-04T03:29:40.175Z,14.00
2019-01-04T03:32:11.099Z,13.47
2019-01-04T03:34:42.199Z,14.33
2019-01-04T03:37:13.174Z,12.60
2019-01-04T03:39:44.426Z,13.10
2019-01-04T03:42:15.467Z,12.80
2019-01-04T03:44:46.738Z,15.73
2019-01-04T03:47:17.753Z,15.90
2019-01-04T03:49:48.758Z,12.83
2019-01-04T03:52:19.639Z,15.20
2019-01-04T03:54:50.994Z,13.20
2019-01-04T03:57:22.012Z,13.67
2019-01-04T03:59:53.014Z,12.97
2019-01-04T04:02:24.102Z,11.97
2019-01-04T04:04:55.195Z,11.50
2019-01-04T04:07:26.075Z,11.23
2019-01-04T04:09:56.965Z,19.73
2019-01-04T04:12:27.750Z,16.83
2019-01-04T04:14:58.639Z,13.93
2019-01-04T04:17:29.737Z,13.30
2019-01-04T04:20:00.806Z,15.87
2019-01-04T04:22:31.806Z,11.00
2019-01-04T04:25:02.711Z,17.63
2019-01-04T04:27:33.695Z,16.13
2019-01-04T04:30:04.790Z,14.83
2019-01-04T04:32:35.767Z,12.43
2019-01-04T04:35:06.771Z,14.17
2019-01-04T04:37:37.657Z,11.87
2019-01-04T04:40:08.822Z,10.43
2019-01-04T04:42:39.951Z,13.40
2019-01-04T04:45:11.009Z,12.00
2019-01-04T04:47:42.027Z,14.40
2019-01-04T04:50:12.943Z,12.93
2019-01-04T04:52:43.910Z,12.70
2019-01-04T04:55:15.147Z,13.60
2019-01-04T04:57:46.178Z,17.27
2019-01-04T05:00:17.178Z,15.40
2019-01-04T05:02:48.158Z,13.73
2019-01-04T05:05:19.263Z,16.00
2019-01-04T05:07:50.278Z,15.00
2019-01-04T05:10:21.338Z,14.57
2019-01-04T05:12:52.317Z,13.93
2019-01-04T05:15:23.439Z,15.70
2019-01-04T05:17:54.518Z,17.20
2019-01-04T05:20:25.478Z,12.50
2019-01-04T05:22:56.294Z,12.23
2019-01-04T05:25:27.421Z,14.67
2019-01-04T05:27:58.380Z,16.10
2019-01-04T05:30:29.499Z,15.13
2019-01-04T05:33:00.562Z,16.27
2019-01-04T05:35:31.621Z,12.90
2019-01-04T05:38:04.886Z,14.63
2019-01-04T05:40:36.254Z,15.20
2019-01-04T05:43:07.065Z,12.27
2019-01-04T05:45:38.066Z,13.40
2019-01-04T05:48:09.166Z,18.37
2019-01-04T05:50:40.153Z,12.70
2019-01-04T05:53:11.030Z,13.57
2019-01-04T05:55:41.937Z,22.80
2019-01-04T05:58:12.810Z,11.53
2019-01-04T06:00:43.889Z,16.93
2019-01-04T06:03:15.002Z,14.90
2019-01-04T06:05:46.094Z,15.27
2019-01-04T06:08:17.082Z,15.50
2019-01-04T06:10:48.422Z,14.90
2019-01-04T06:13:19.473Z,13.90
2019-01-04T06:15:51.201Z,15.97
2019-01-04T06:18:22.266Z,13.83
2019-01-04T06:20:53.253Z,15.53
2019-01-04T06:23:24.143Z,14.23
2019-01-04T06:25:55.107Z,13.27
2019-01-04T06:28:26.134Z,18.53
2019-01-04T06:30:57.220Z,14.50
2019-01-04T06:33:28.311Z,13.20
2019-01-04T06:35:59.196Z,13.73
2019-01-04T06:38:30.082Z,15.33
2019-01-04T06:41:01.164Z,12.43
2019-01-04T06:43:32.274Z,15.30
2019-01-04T06:46:03.721Z,11.57
2019-01-04T06:48:34.554Z,12.17
2019-01-04T06:51:05.550Z,11.77
2019-01-04T06:53:36.642Z,16.00
2019-01-04T06:56:08.288Z,12.73
2019-01-04T06:58:39.229Z,13.83
2019-01-04T07:01:10.298Z,12.40
2019-01-04T07:03:41.314Z,10.97
2019-01-04T07:06:12.306Z,14.83
2019-01-04T07:08:43.290Z,16.00
2019-01-04T07:11:14.561Z,20.43
2019-01-04T07:13:45.582Z,15.27
2019-01-04T07:16:17.878Z,15.97
2019-01-04T07:18:49.006Z,12.27
2019-01-04T07:21:19.960Z,14.33
2019-01-04T07:23:51.998Z,10.07
2019-01-04T07:26:22.958Z,10.43
2019-01-04T07:28:53.966Z,11.20
2019-01-04T07:31:25.051Z,12.47
2019-01-04T07:33:56.061Z,13.20
2019-01-04T07:36:27.046Z,12.90
2019-01-04T07:38:57.930Z,14.03
2019-01-04T07:41:29.069Z,16.30
2019-01-04T07:44:00.021Z,10.00
2019-01-04T07:46:31.006Z,11.13
2019-01-04T07:49:01.890Z,18.10
2019-01-04T07:51:32.861Z,11.93
2019-01-04T07:54:03.881Z,20.50
2019-01-04T07:56:35.125Z,16.03
2019-01-04T07:59:06.061Z,15.70
2019-01-04T08:01:37.045Z,12.87
2019-01-04T08:04:08.962Z,12.03
2019-01-04T08:06:39.838Z,16.27
2019-01-04T08:09:10.725Z,13.07
2019-01-04T08:11:41.623Z,17.07
2019-01-04T08:14:12.722Z,12.40
2019-01-04T08:16:43.827Z,14.90
2019-01-04T08:19:14.691Z,14.47
2019-01-04T08:21:45.690Z,17.80
2019-01-04T08:24:16.785Z,13.63
2019-01-04T08:26:47.914Z,12.40
2019-01-04T08:29:18.758Z,12.10
2019-01-04T08:31:49.929Z,13.93
2019-01-04T08:34:21.050Z,13.00
2019-01-04T08:36:52.121Z,14.27
2019-01-04T08:39:23.025Z,18.23
2019-01-04T08:41:54.176Z,20.53
2019-01-04T08:44:25.110Z,13.00
2019-01-04T08:46:56.425Z,11.97
2019-01-04T08:49:27.282Z,13.37
2019-01-04T08:51:58.457Z,13.40
2019-01-04T08:54:29.373Z,14.20
2019-01-04T08:57:00.363Z,10.17
2019-01-04T08:59:31.458Z,13.30
2019-01-04T09:02:02.343Z,11.40
2019-01-04T09:04:33.329Z,11.33
2019-01-04T09:07:04.222Z,9.77
2019-01-04T09:09:35.210Z,8.87
2019-01-04T09:12:06.381Z,10.93
2019-01-04T09:14:37.379Z,13.40
2019-01-04T09:17:08.282Z,14.30
2019-01-04T09:19:39.089Z,11.10
2019-01-04T09:22:10.234Z,11.93
2019-01-04T09:24:41.256Z,13.70
2019-01-04T09:27:12.134Z,15.23
2019-01-04T09:29:43.047Z,14.70
2019-01-04T09:32:14.322Z,11.60
2019-01-04T09:34:45.213Z,13.87
2019-01-04T09:37:16.201Z,11.40
2019-01-04T09:39:47.262Z,13.53
2019-01-04T09:42:20.546Z,15.23
2019-01-04T09:44:51.513Z,19.33
2019-01-04T09:47:22.401Z,16.93
2019-01-04T09:49:54.317Z,14.03
2019-01-04T09:52:25.201Z,17.23
2019-01-04T09:54:56.102Z,15.00
2019-01-04T09:57:28.077Z,12.27
2019-01-04T09:59:59.001Z,15.67
2019-01-04T10:02:30.017Z,17.97
2019-01-04T10:05:01.786Z,29.03
2019-01-04T10:07:32.842Z,24.07
2019-01-04T10:10:04.085Z,16.23
2019-01-04T10:12:35.325Z,15.00
2019-01-04T10:15:07.082Z,12.57
2019-01-04T10:17:38.178Z,13.97
2019-01-04T10:20:09.673Z,20.20
2019-01-04T10:22:40.675Z,15.33
2019-01-04T10:25:11.653Z,15.53
2019-01-04T10:27:42.922Z,14.40
2019-01-04T10:30:27.871Z,16.53
2019-01-04T10:32:59.696Z,19.10
2019-01-04T10:35:31.702Z,16.80
2019-01-04T10:38:02.822Z,16.07
2019-01-04T10:40:33.897Z,16.50
2019-01-04T10:43:04.870Z,11.50
2019-01-04T10:45:35.750Z,13.30
2019-01-04T10:48:06.747Z,14.43
2019-01-04T10:50:37.667Z,14.67
2019-01-04T10:53:08.625Z,18.73
2019-01-04T10:55:39.622Z,17.10
2019-01-04T10:58:11.618Z,16.67
2019-01-04T11:00:42.622Z,14.47
2019-01-04T11:03:13.614Z,18.77
2019-01-04T11:05:44.606Z,23.77
2019-01-04T11:08:15.733Z,17.43
2019-01-04T11:10:46.790Z,14.43
2019-01-04T11:13:17.777Z,19.23
2019-01-04T11:15:48.813Z,14.37
2019-01-04T11:18:19.861Z,15.87
2019-01-04T11:20:50.953Z,16.93
2019-01-04T11:24:01.726Z,21.40
2019-01-04T11:27:00.518Z,16.83
2019-01-04T11:30:09.447Z,15.27
2019-01-04T11:33:17.862Z,14.77
2019-01-04T11:36:31.539Z,12.93
2019-01-04T11:39:49.036Z,20.73
2019-01-04T11:42:55.411Z,17.10
2019-01-04T11:46:09.973Z,14.63
2019-01-04T11:49:05.019Z,17.03
2019-01-04T11:51:49.830Z,17.37
2019-01-04T11:54:24.871Z,14.17
2019-01-04T11:56:55.709Z,14.67
2019-01-04T11:59:26.885Z,14.17
2019-01-04T12:01:57.990Z,14.07
2019-01-04T12:04:29.140Z,16.83
2019-01-04T12:07:00.070Z,11.57
2019-01-04T12:09:31.158Z,13.70
2019-01-04T12:12:02.142Z,12.97
2019-01-04T12:14:33.386Z,15.03
2019-01-04T12:17:04.238Z,18.00
2019-01-04T12:19:35.341Z,15.10
2019-01-04T12:22:06.206Z,15.77
2019-01-04T12:24:37.206Z,13.83
2019-01-04T12:27:08.199Z,13.60
2019-01-04T12:29:40.158Z,16.40
2019-01-04T12:32:11.107Z,14.40
2019-01-04T12:34:42.088Z,13.80
2019-01-04T12:37:13.069Z,13.37
2019-01-04T12:39:43.954Z,10.57
2019-01-04T12:42:14.942Z,11.53
2019-01-04T12:44:46.291Z,12.90
2019-01-04T12:47:17.241Z,11.20
2019-01-04T12:49:48.234Z,14.07
2019-01-04T12:52:20.399Z,14.23
2019-01-04T12:54:51.325Z,17.23
2019-01-04T12:57:22.215Z,11.70
2019-01-04T12:59:53.107Z,14.60
2019-01-04T13:02:24.104Z,19.50
2019-01-04T13:04:55.442Z,21.07
2019-01-04T13:07:26.493Z,13.20
2019-01-04T13:09:57.366Z,15.63
2019-01-04T13:12:28.470Z,18.20
2019-01-04T13:14:59.578Z,13.97
2019-01-04T13:17:30.554Z,13.80
2019-01-04T13:20:01.698Z,15.20
2019-01-04T13:22:32.639Z,14.60
2019-01-04T13:25:03.882Z,12.40
2019-01-04T13:27:34.710Z,11.60
2019-01-04T13:30:06.509Z,16.23
2019-01-04T13:32:37.415Z,13.70
2019-01-04T13:35:08.477Z,10.53
2019-01-04T13:37:39.381Z,16.03
2019-01-04T13:40:10.370Z,12.13
2019-01-04T13:42:41.270Z,12.23
2019-01-04T13:45:12.255Z,13.00
2019-01-04T13:47:43.143Z,15.27
2019-01-04T13:50:14.217Z,13.43
2019-01-04T13:52:45.341Z,14.00
2019-01-04T13:55:16.346Z,17.30
2019-01-04T13:57:47.234Z,13.97
2019-01-04T14:00:18.100Z,15.47
2019-01-04T14:02:48.986Z,13.37
2019-01-04T14:05:20.060Z,10.53
2019-01-04T14:07:51.069Z,12.30
2019-01-04T14:10:22.054Z,15.73
2019-01-04T14:12:52.962Z,10.03
2019-01-04T14:15:23.910Z,10.97
2019-01-04T14:17:54.812Z,11.87
2019-01-04T14:20:26.633Z,12.17
2019-01-04T14:22:57.501Z,9.37
2019-01-04T14:25:28.405Z,14.73
2019-01-04T14:27:59.597Z,8.50
2019-01-04T14:30:31.496Z,10.13
2019-01-04T14:33:02.386Z,10.60
2019-01-04T14:35:33.394Z,11.60
2019-01-04T14:38:04.278Z,17.70
2019-01-04T14:40:35.261Z,12.50
2019-01-04T14:43:06.146Z,10.27
2019-01-04T14:45:37.274Z,8.13
2019-01-04T14:48:08.019Z,9.07
2019-01-04T14:50:39.813Z,8.30
2019-01-04T14:53:11.854Z,13.07
2019-01-04T14:55:42.734Z,12.60
2019-01-04T14:58:13.617Z,13.30
2019-01-04T15:00:44.519Z,11.40
2019-01-04T15:03:15.505Z,14.00
2019-01-04T15:05:50.409Z,9.90
2019-01-04T15:08:19.222Z,9.53
2019-01-04T15:10:50.101Z,10.77
2019-01-04T15:13:21.109Z,10.73
2019-01-04T15:15:52.194Z,10.27
2019-01-04T15:18:23.177Z,12.40
2019-01-04T15:20:54.065Z,11.97
2019-01-04T15:23:24.945Z,13.87
2019-01-04T15:25:55.839Z,13.50
2019-01-04T15:28:26.839Z,12.17
2019-01-04T15:30:57.828Z,11.03
2019-01-04T15:33:28.818Z,11.43
2019-01-04T15:35:59.700Z,13.47
2019-01-04T15:38:36.063Z,13.53
2019-01-04T15:41:03.377Z,11.20
2019-01-04T15:43:34.314Z,12.43
2019-01-04T15:46:05.534Z,12.47
2019-01-04T15:48:36.374Z,14.37
2019-01-04T15:51:07.518Z,15.33
2019-01-04T15:53:38.453Z,12.87
2019-01-04T15:56:09.441Z,11.10
2019-01-04T15:58:40.617Z,15.87
2019-01-04T16:01:11.757Z,16.93
2019-01-04T16:03:42.634Z,14.57
2019-01-04T16:06:13.631Z,16.00
2019-01-04T16:08:44.523Z,18.80
2019-01-04T16:11:15.595Z,14.40
2019-01-04T16:13:46.596Z,15.30
2019-01-04T16:16:17.372Z,19.93
2019-01-04T16:18:48.265Z,14.23
2019-01-04T16:21:19.401Z,14.93
2019-01-04T16:23:50.364Z,14.57
2019-01-04T16:26:21.446Z,12.53
2019-01-04T16:28:52.330Z,18.97
2019-01-04T16:31:23.462Z,14.90
2019-01-04T16:33:54.310Z,15.33
2019-01-04T16:36:25.197Z,13.17
2019-01-04T16:38:56.298Z,13.67
2019-01-04T16:41:27.364Z,14.33
2019-01-04T16:43:59.827Z,14.87
2019-01-04T16:46:30.786Z,17.40
2019-01-04T16:49:01.677Z,18.50
2019-01-04T16:51:32.561Z,17.40
2019-01-04T16:54:03.558Z,16.97
2019-01-04T16:56:34.550Z,18.53
2019-01-04T16:59:05.435Z,21.00
2019-01-04T17:01:36.328Z,15.80
2019-01-04T17:04:07.246Z,14.40
2019-01-04T17:06:38.537Z,17.10
2019-01-04T17:09:09.813Z,21.20
2019-01-04T17:11:40.691Z,21.20
2019-01-04T17:14:11.577Z,20.67
2019-01-04T17:16:42.465Z,16.17
2019-01-04T17:19:13.465Z,18.67
2019-01-04T17:21:44.535Z,14.23
2019-01-04T17:24:15.681Z,15.73
2019-01-04T17:26:46.813Z,19.00
2019-01-04T17:29:17.734Z,15.17
2019-01-04T17:31:48.817Z,16.07
2019-01-04T17:34:19.713Z,16.27
2019-01-04T17:36:50.670Z,13.40
2019-01-04T17:39:21.682Z,19.90
2019-01-04T17:41:52.778Z,19.70
2019-01-04T17:44:23.770Z,16.57
2019-01-04T17:46:54.754Z,13.13
2019-01-04T17:49:25.640Z,16.97
2019-01-04T17:51:56.526Z,19.97
2019-01-04T17:54:27.432Z,22.00
2019-01-04T17:56:58.407Z,24.90
2019-01-04T17:59:29.510Z,18.73
2019-01-04T18:02:00.492Z,23.37
2019-01-04T18:04:31.382Z,23.87
2019-01-04T18:07:02.257Z,23.40
2019-01-04T18:09:33.262Z,23.13
2019-01-04T18:12:04.330Z,23.70
2019-01-04T18:14:35.131Z,23.57
2019-01-04T18:17:06.106Z,24.77
2019-01-04T18:19:37.122Z,25.00
2019-01-04T18:22:07.993Z,23.53
2019-01-04T18:24:39.002Z,20.77
2019-01-04T18:27:10.078Z,21.87
2019-01-04T18:29:40.966Z,21.03
2019-01-04T18:32:11.600Z,18.43
2019-01-04T18:34:42.542Z,23.93
2019-01-04T18:37:13.661Z,20.70
2019-01-04T18:39:44.629Z,23.87
2019-01-04T18:42:15.634Z,19.80
2019-01-04T18:44:46.646Z,19.70
2019-01-04T18:47:18.723Z,27.03
2019-01-04T18:49:49.605Z,23.87
2019-01-04T18:52:20.475Z,26.40
2019-01-04T18:54:51.493Z,33.53
2019-01-04T18:57:22.549Z,25.47
2019-01-04T18:59:53.673Z,23.40
2019-01-04T19:02:24.550Z,24.73
2019-01-04T19:04:55.437Z,27.17
2019-01-04T19:07:26.385Z,22.80
2019-01-04T19:09:57.314Z,21.93
2019-01-04T19:12:28.414Z,22.00
2019-01-04T19:14:59.531Z,23.93
2019-01-04T19:17:30.477Z,22.67
2019-01-04T19:20:01.486Z,25.17
2019-01-04T19:22:32.782Z,21.00
2019-01-04T19:25:03.782Z,22.40
2019-01-04T19:27:34.760Z,20.30
2019-01-04T19:30:06.266Z,24.33
2019-01-04T19:32:37.402Z,26.47
2019-01-04T19:35:08.349Z,21.43
2019-01-04T19:37:39.229Z,21.20
2019-01-04T19:40:10.236Z,20.77
2019-01-04T19:42:41.297Z,20.70
2019-01-04T19:45:12.314Z,22.30
2019-01-04T19:47:43.305Z,23.37
2019-01-04T19:50:20.550Z,22.93
2019-01-04T19:52:51.675Z,26.83
2019-01-04T19:55:22.721Z,23.20
2019-01-04T19:57:53.614Z,19.30
2019-01-04T20:00:24.602Z,19.03
2019-01-04T20:02:55.698Z,21.70
2019-01-04T20:06:19.582Z,20.80
2019-01-04T20:09:53.025Z,19.70
2019-01-04T20:13:17.012Z,20.63
2019-01-04T20:16:47.069Z,19.83
2019-01-04T20:19:35.261Z,17.83
2019-01-04T20:22:24.441Z,20.27
2019-01-04T20:25:23.230Z,19.80
2019-01-04T20:28:22.537Z,24.00
2019-01-04T20:31:24.306Z,21.17
2019-01-04T20:34:12.713Z,27.73
2019-01-04T20:37:01.441Z,18.23
2019-01-04T20:39:51.702Z,22.07
2019-01-04T20:42:53.602Z,21.50
2019-01-04T20:45:42.299Z,25.07
2019-01-04T20:48:30.766Z,21.77
2019-01-04T20:51:23.617Z,19.03
2019-01-04T20:54:12.954Z,19.70
2019-01-04T20:57:11.214Z,19.27
2019-01-04T21:00:14.927Z,21.90
2019-01-04T21:03:03.837Z,20.23
2019-01-04T21:06:02.514Z,22.97
2019-01-04T21:08:51.365Z,20.80
2019-01-04T21:11:40.041Z,24.83
2019-01-04T21:14:28.394Z,21.50
2019-01-04T21:17:26.913Z,22.87
2019-01-04T21:20:28.697Z,21.60
2019-01-04T21:23:29.782Z,18.47
2019-01-04T21:26:18.458Z,21.93
2019-01-04T21:29:08.350Z,22.53
2019-01-04T21:32:04.013Z,26.17
2019-01-04T21:34:52.674Z,22.10
2019-01-04T21:37:57.974Z,20.37
2019-01-04T21:41:03.051Z,19.27
2019-01-04T21:43:55.602Z,16.93
2019-01-04T21:46:48.202Z,23.10
2019-01-04T21:49:36.658Z,21.90
2019-01-04T21:52:29.282Z,21.20
2019-01-04T21:55:22.014Z,17.53
2019-01-04T21:58:21.203Z,21.50
2019-01-04T22:01:05.974Z,17.47
2019-01-04T22:04:01.486Z,19.60
2019-01-04T22:06:50.350Z,16.50
2019-01-04T22:09:43.064Z,18.60
2019-01-04T22:12:42.297Z,19.77
2019-01-04T22:15:31.361Z,19.23
2019-01-04T22:18:39.493Z,17.47
2019-01-04T22:21:29.394Z,19.93
2019-01-04T22:24:34.186Z,20.00
2019-01-04T22:27:30.831Z,19.33
2019-01-04T22:30:21.223Z,14.97
2019-01-04T22:33:09.726Z,15.93
2019-01-04T22:35:58.734Z,22.30
2019-01-04T22:38:47.385Z,19.80
2019-01-04T22:41:35.854Z,19.17
2019-01-04T22:44:24.346Z,21.03
2019-01-04T22:47:14.170Z,16.43
2019-01-04T22:50:06.762Z,18.90
2019-01-04T22:53:00.462Z,18.40
2019-01-04T22:55:43.103Z,20.47
2019-01-04T22:58:39.890Z,16.77
2019-01-04T23:01:36.653Z,17.70
2019-01-04T23:04:25.243Z,16.23
2019-01-04T23:07:18.094Z,19.23
2019-01-04T23:10:01.327Z,17.23
2019-01-04T23:13:09.526Z,18.63
2019-01-04T23:15:58.430Z,18.70
2019-01-04T23:18:47.102Z,19.17
2019-01-04T23:22:11.850Z,17.27
2019-01-04T23:25:19.858Z,18.50
2019-01-04T23:28:16.254Z,16.43
2019-01-04T23:31:13.369Z,20.33
2019-01-04T23:33:58.253Z,24.27
2019-01-04T23:37:00.209Z,22.23
2019-01-04T23:39:48.727Z,20.60
2019-01-04T23:42:37.057Z,25.90
2019-01-04T23:45:25.934Z,22.10
2019-01-04T23:48:11.210Z,21.10
2019-01-04T23:51:03.842Z,19.13
2019-01-04T23:53:49.809Z,22.37
2019-01-04T23:56:42.397Z,18.83
2019-01-04T23:59:25.425Z,24.10
